Time;durP1;ratioP1;P1;durP2;ratioP2;P2;SDS_P1;SDS_P2;PMS_P1;PMS_P2;Temp;Humidity;BMP_temperature;BMP_pressure;BME280_temperature;BME280_humidity;BME280_pressure;Samples;Min_cycle;Max_cycle;Signal;HPM_P1;HPM_P2
2022/05/29 00:00:49;;;;;;;;;;;10.70;99.90;;;;;;5069626;28;20311;-79
2022/05/29 00:03:15;;;;;;;;;;;10.70;99.90;;;;;;5070244;28;19924;-80
2022/05/29 00:05:41;;;;;;;;;;;10.70;99.90;;;;;;5070115;28;19928;-80
2022/05/29 00:08:07;;;;;;;;;;;10.70;99.90;;;;;;5069951;28;19928;-80
2022/05/29 00:10:36;;;;;;;;;;;10.80;99.90;;;;;;5070065;28;20413;-79
2022/05/29 00:13:01;;;;;;;;;;;10.70;99.90;;;;;;5070007;28;19925;-80
2022/05/29 00:15:27;;;;;;;;;;;10.70;99.90;;;;;;5069278;28;20348;-80
2022/05/29 00:17:52;;;;;;;;;;;10.70;99.90;;;;;;5069563;28;19924;-79
2022/05/29 00:20:18;;;;;;;;;;;10.60;99.90;;;;;;5070045;28;20450;-79
2022/05/29 00:22:43;;;;;;;;;;;10.60;99.90;;;;;;5064693;28;19932;-79
2022/05/29 00:25:10;;;;;;;;;;;10.60;99.90;;;;;;5060500;28;19930;-80
2022/05/29 00:27:37;;;;;;;;;;;10.60;99.90;;;;;;5051676;28;19929;-80
2022/05/29 00:30:04;;;;;;;;;;;10.60;99.90;;;;;;5069717;28;19985;-79
2022/05/29 00:32:30;;;;;;;;;;;10.60;99.90;;;;;;5069487;28;20471;-80
2022/05/29 00:34:55;;;;;;;;;;;10.60;99.90;;;;;;5069827;28;19928;-79
2022/05/29 00:37:21;;;;;;;;;;;10.60;99.90;;;;;;5068803;28;19928;-79
2022/05/29 00:39:49;;;;;;;;;;;10.60;99.90;;;;;;5069599;28;19975;-79
2022/05/29 00:42:24;;;;;;;;;;;10.60;99.90;;;;;;5069289;28;19924;-80
2022/05/29 00:44:50;;;;;;;;;;;10.60;99.90;;;;;;5050897;28;20321;-80
2022/05/29 00:47:18;;;;;;;;;;;10.70;99.90;;;;;;5069229;28;19929;-79
2022/05/29 00:49:44;;;;;;;;;;;10.70;99.90;;;;;;5068877;28;19970;-79
2022/05/29 00:52:16;;;;;;;;;;;10.70;99.90;;;;;;5069375;28;19931;-79
2022/05/29 00:55:05;;;;;;;;;;;10.70;99.90;;;;;;5069191;28;19955;-79
2022/05/29 00:57:35;;;;;;;;;;;10.80;99.90;;;;;;5063645;28;20015;-79
2022/05/29 01:00:03;;;;;;;;;;;10.80;99.90;;;;;;5068995;28;19978;-79
2022/05/29 01:02:29;;;;;;;;;;;10.80;99.90;;;;;;5069614;28;20040;-80
2022/05/29 01:04:55;;;;;;;;;;;10.80;99.90;;;;;;5069253;28;19928;-79
2022/05/29 01:07:21;;;;;;;;;;;10.80;99.90;;;;;;5069630;28;20639;-79
2022/05/29 01:09:48;;;;;;;;;;;10.80;99.90;;;;;;5069628;28;19924;-80
2022/05/29 01:12:13;;;;;;;;;;;10.90;99.90;;;;;;5084814;28;20412;-79
2022/05/29 01:14:47;;;;;;;;;;;10.90;99.90;;;;;;5069280;28;19956;-79
2022/05/29 01:17:29;;;;;;;;;;;10.90;99.90;;;;;;5069277;28;19925;-79
2022/05/29 01:19:58;;;;;;;;;;;10.90;99.90;;;;;;5048096;28;19925;-79
2022/05/29 01:22:34;;;;;;;;;;;10.90;99.90;;;;;;5047198;28;20473;-79
2022/05/29 01:25:18;;;;;;;;;;;10.90;99.90;;;;;;5068926;28;20270;-79
2022/05/29 01:28:04;;;;;;;;;;;10.90;99.90;;;;;;5064213;28;19967;-79
2022/05/29 01:30:34;;;;;;;;;;;10.90;99.90;;;;;;5038975;28;19924;-79
2022/05/29 01:33:04;;;;;;;;;;;10.90;99.90;;;;;;5067532;28;19931;-79
2022/05/29 01:35:35;;;;;;;;;;;10.90;99.90;;;;;;5060324;28;20441;-79
2022/05/29 01:38:04;;;;;;;;;;;10.90;99.90;;;;;;5069140;28;19924;-79
2022/05/29 01:40:47;;;;;;;;;;;10.90;99.90;;;;;;5051380;28;20297;-79
2022/05/29 01:43:22;;;;;;;;;;;10.90;99.90;;;;;;5079585;28;19931;-79
2022/05/29 01:46:07;;;;;;;;;;;10.90;99.90;;;;;;5033809;28;19940;-79
2022/05/29 01:48:36;;;;;;;;;;;10.90;99.90;;;;;;5041023;28;19928;-79
2022/05/29 01:51:16;;;;;;;;;;;10.90;99.90;;;;;;5072441;28;20289;-79
2022/05/29 01:54:01;;;;;;;;;;;10.90;99.90;;;;;;5054235;28;19932;-79
2022/05/29 01:56:31;;;;;;;;;;;10.80;99.90;;;;;;5072121;28;19925;-79
2022/05/29 01:58:59;;;;;;;;;;;10.80;99.90;;;;;;5071916;28;19967;-79
2022/05/29 02:01:30;;;;;;;;;;;10.80;99.90;;;;;;5072479;28;19924;-79
2022/05/29 02:03:57;;;;;;;;;;;10.80;99.90;;;;;;5054563;28;20279;-79
2022/05/29 02:07:47;;;;;;;;;;;10.80;99.90;;;;;;5088465;28;19932;-79
2022/05/29 02:09:16;;;;;;;;;;;10.70;99.90;;;;;;5054032;28;19931;-79
2022/05/29 02:11:41;;;;;;;;;;;10.80;99.90;;;;;;5072052;28;19924;-80
2022/05/29 02:14:10;;;;;;;;;;;10.70;99.90;;;;;;5072165;28;20413;-80
2022/05/29 02:16:40;;;;;;;;;;;10.80;99.90;;;;;;5072088;28;19999;-79
2022/05/29 02:19:09;;;;;;;;;;;10.70;99.90;;;;;;5071885;28;19928;-79
2022/05/29 02:21:39;;;;;;;;;;;10.70;99.90;;;;;;5053928;28;19968;-80
2022/05/29 02:24:07;;;;;;;;;;;10.70;99.90;;;;;;5070597;28;20055;-79
2022/05/29 02:26:39;;;;;;;;;;;10.70;99.90;;;;;;5053953;28;19970;-79
2022/05/29 02:29:07;;;;;;;;;;;10.70;99.90;;;;;;5087632;28;20506;-79
2022/05/29 02:31:51;;;;;;;;;;;10.70;99.90;;;;;;5071754;28;19924;-79
2022/05/29 02:34:31;;;;;;;;;;;10.70;99.90;;;;;;5087168;28;19924;-81
2022/05/29 02:36:57;;;;;;;;;;;10.70;99.90;;;;;;5067285;28;19931;-80
2022/05/29 02:39:34;;;;;;;;;;;10.70;99.90;;;;;;5081283;28;19925;-79
2022/05/29 02:42:05;;;;;;;;;;;10.60;99.90;;;;;;5053670;28;19924;-80
2022/05/29 02:44:34;;;;;;;;;;;10.60;99.90;;;;;;5087400;28;19924;-80
2022/05/29 02:47:18;;;;;;;;;;;10.60;99.90;;;;;;5072716;28;19931;-80
2022/05/29 02:49:57;;;;;;;;;;;10.60;99.90;;;;;;5086951;28;19924;-79
2022/05/29 02:52:23;;;;;;;;;;;10.50;99.90;;;;;;5068758;28;19924;-80
2022/05/29 02:54:49;;;;;;;;;;;10.60;99.90;;;;;;5053267;28;19925;-80
2022/05/29 02:57:15;;;;;;;;;;;10.50;99.90;;;;;;5053215;28;19962;-79
2022/05/29 02:59:43;;;;;;;;;;;10.50;99.90;;;;;;5086168;28;19932;-80
2022/05/29 03:02:11;;;;;;;;;;;10.50;99.90;;;;;;5053039;28;19924;-79
2022/05/29 03:04:52;;;;;;;;;;;10.50;99.90;;;;;;5043045;28;19936;-79
2022/05/29 03:07:37;;;;;;;;;;;10.50;99.90;;;;;;5085183;28;19993;-80
2022/05/29 03:10:10;;;;;;;;;;;10.50;99.90;;;;;;5073241;28;19933;-80
2022/05/29 03:12:47;;;;;;;;;;;10.60;99.90;;;;;;5053539;28;19924;-80
2022/05/29 03:15:20;;;;;;;;;;;10.60;99.90;;;;;;5053196;28;19924;-80
2022/05/29 03:17:50;;;;;;;;;;;10.60;99.90;;;;;;5053190;28;19925;-79
2022/05/29 03:20:26;;;;;;;;;;;10.60;99.90;;;;;;5071077;28;19925;-80
2022/05/29 03:23:15;;;;;;;;;;;10.60;99.90;;;;;;5072685;28;20636;-80
2022/05/29 03:25:43;;;;;;;;;;;10.60;99.90;;;;;;5070683;28;20360;-79
2022/05/29 03:28:21;;;;;;;;;;;10.60;99.90;;;;;;5071043;28;19928;-80
2022/05/29 03:30:49;;;;;;;;;;;10.60;99.90;;;;;;5070227;28;20444;-79
2022/05/29 03:33:15;;;;;;;;;;;10.60;99.90;;;;;;5036150;28;19971;-79
2022/05/29 03:35:52;;;;;;;;;;;10.60;99.90;;;;;;5069173;28;19960;-79
2022/05/29 03:38:18;;;;;;;;;;;10.60;99.90;;;;;;5073215;28;19931;-79
2022/05/29 03:40:45;;;;;;;;;;;10.60;99.90;;;;;;5086239;28;20305;-79
2022/05/29 03:43:10;;;;;;;;;;;10.50;99.90;;;;;;5070171;28;19924;-79
2022/05/29 03:45:35;;;;;;;;;;;10.50;99.90;;;;;;5052878;28;19924;-80
2022/05/29 03:48:02;;;;;;;;;;;10.50;99.90;;;;;;5052589;28;20310;-79
2022/05/29 03:50:27;;;;;;;;;;;10.50;99.90;;;;;;5067376;28;19933;-79
2022/05/29 03:52:53;;;;;;;;;;;10.50;99.90;;;;;;5052102;28;20428;-79
2022/05/29 03:55:26;;;;;;;;;;;10.50;99.90;;;;;;5051981;28;19980;-79
2022/05/29 03:57:52;;;;;;;;;;;10.50;99.90;;;;;;5086028;28;20593;-80
2022/05/29 04:00:18;;;;;;;;;;;10.50;99.90;;;;;;5070045;28;19928;-80
2022/05/29 04:02:45;;;;;;;;;;;10.50;99.90;;;;;;5069784;28;20397;-79
2022/05/29 04:05:12;;;;;;;;;;;10.50;99.90;;;;;;5085836;28;19924;-79
2022/05/29 04:13:06;;;;;;;;;;;10.50;99.90;;;;;;5085802;28;19928;-79
2022/05/29 04:15:31;;;;;;;;;;;10.50;99.90;;;;;;5083236;28;20344;-79
2022/05/29 04:17:57;;;;;;;;;;;10.50;99.90;;;;;;5058152;28;20039;-79
2022/05/29 04:20:23;;;;;;;;;;;10.50;99.90;;;;;;5085199;28;20007;-79
2022/05/29 04:22:48;;;;;;;;;;;10.60;99.90;;;;;;5037849;28;19931;-79
2022/05/29 04:25:14;;;;;;;;;;;10.50;99.90;;;;;;5051499;28;19928;-79
2022/05/29 04:27:39;;;;;;;;;;;10.50;99.90;;;;;;5069691;28;20263;-79
2022/05/29 04:30:07;;;;;;;;;;;10.60;99.90;;;;;;5051485;28;19929;-79
2022/05/29 04:35:16;;;;;;;;;;;10.60;99.90;;;;;;5085099;28;19924;-79
2022/05/29 04:37:42;;;;;;;;;;;10.60;99.90;;;;;;5068866;28;19931;-79
2022/05/29 04:40:08;;;;;;;;;;;10.60;99.90;;;;;;5050523;28;20292;-79
2022/05/29 04:42:34;;;;;;;;;;;10.60;99.90;;;;;;5036587;28;19932;-79
2022/05/29 04:45:00;;;;;;;;;;;10.60;99.90;;;;;;5069226;28;19985;-79
2022/05/29 04:47:25;;;;;;;;;;;10.60;99.90;;;;;;5085327;28;19963;-79
2022/05/29 04:49:51;;;;;;;;;;;10.60;99.90;;;;;;5069533;28;19968;-79
2022/05/29 04:52:16;;;;;;;;;;;10.70;99.90;;;;;;5051487;28;20325;-79
2022/05/29 04:54:42;;;;;;;;;;;10.70;99.90;;;;;;5069344;28;19933;-79
2022/05/29 04:57:08;;;;;;;;;;;10.70;99.90;;;;;;5051694;28;19925;-79
2022/05/29 04:59:34;;;;;;;;;;;10.70;99.90;;;;;;5051394;28;19925;-78
2022/05/29 05:02:00;;;;;;;;;;;10.70;99.90;;;;;;5084485;28;19931;-79
2022/05/29 05:04:26;;;;;;;;;;;10.70;99.90;;;;;;5042842;28;19929;-79
2022/05/29 05:06:58;;;;;;;;;;;10.70;99.90;;;;;;5064004;28;19928;-79
2022/05/29 05:09:25;;;;;;;;;;;10.70;99.90;;;;;;5069540;28;19932;-79
2022/05/29 05:11:51;;;;;;;;;;;10.70;99.90;;;;;;5069520;28;20402;-79
2022/05/29 05:14:17;;;;;;;;;;;10.70;99.90;;;;;;5050983;28;19925;-79
2022/05/29 05:16:42;;;;;;;;;;;10.70;99.90;;;;;;5069388;28;19931;-79
2022/05/29 05:19:08;;;;;;;;;;;10.80;99.90;;;;;;5069161;28;19924;-79
2022/05/29 05:21:33;;;;;;;;;;;10.70;99.90;;;;;;5068950;28;19924;-79
2022/05/29 05:23:59;;;;;;;;;;;10.80;99.90;;;;;;5070912;28;19924;-79
2022/05/29 05:26:24;;;;;;;;;;;10.80;99.90;;;;;;5073332;28;19950;-78
2022/05/29 05:28:50;;;;;;;;;;;10.80;99.90;;;;;;5073035;28;20356;-79
2022/05/29 05:31:15;;;;;;;;;;;10.90;99.90;;;;;;5072961;28;20015;-79
2022/05/29 05:33:41;;;;;;;;;;;10.90;99.90;;;;;;5060685;28;19924;-79
2022/05/29 05:36:06;;;;;;;;;;;11.00;99.90;;;;;;5056161;28;20378;-78
2022/05/29 05:38:32;;;;;;;;;;;11.00;99.90;;;;;;5073253;28;20017;-79
2022/05/29 05:40:58;;;;;;;;;;;11.00;99.90;;;;;;5054922;28;20502;-79
2022/05/29 05:43:23;;;;;;;;;;;11.00;99.90;;;;;;5072461;28;19935;-78
2022/05/29 05:45:49;;;;;;;;;;;11.10;99.90;;;;;;5054664;28;19932;-79
2022/05/29 05:48:15;;;;;;;;;;;11.00;99.90;;;;;;5054747;28;20351;-79
2022/05/29 05:50:41;;;;;;;;;;;11.10;99.90;;;;;;5035489;28;20298;-79
2022/05/29 05:53:06;;;;;;;;;;;11.10;99.90;;;;;;5054235;28;19954;-79
2022/05/29 05:55:32;;;;;;;;;;;11.10;99.90;;;;;;5054494;28;19925;-79
2022/05/29 05:57:57;;;;;;;;;;;11.00;99.90;;;;;;5072030;28;19931;-79
2022/05/29 06:00:23;;;;;;;;;;;11.00;99.90;;;;;;5054538;28;19924;-79
2022/05/29 06:02:48;;;;;;;;;;;10.90;99.90;;;;;;5087613;28;20007;-79
2022/05/29 06:05:14;;;;;;;;;;;11.00;99.90;;;;;;5054286;28;19970;-79
2022/05/29 06:07:40;;;;;;;;;;;11.00;99.90;;;;;;5054721;28;20298;-79
2022/05/29 06:10:06;;;;;;;;;;;11.00;99.90;;;;;;5070652;28;19928;-79
2022/05/29 06:12:31;;;;;;;;;;;11.00;99.90;;;;;;5053510;28;20655;-78
2022/05/29 06:14:57;;;;;;;;;;;11.00;99.90;;;;;;5083937;28;19924;-79
2022/05/29 06:17:23;;;;;;;;;;;10.90;99.90;;;;;;5040331;28;20016;-79
2022/05/29 06:19:48;;;;;;;;;;;10.90;99.90;;;;;;5064527;28;19924;-79
2022/05/29 06:22:14;;;;;;;;;;;10.90;99.90;;;;;;5053597;28;20717;-79
2022/05/29 06:24:39;;;;;;;;;;;10.80;99.90;;;;;;5053908;28;19969;-79
2022/05/29 06:27:05;;;;;;;;;;;10.90;99.90;;;;;;5053952;28;19932;-79
2022/05/29 06:29:30;;;;;;;;;;;10.80;99.90;;;;;;5053921;28;19924;-79
2022/05/29 06:32:04;;;;;;;;;;;10.80;99.90;;;;;;5053149;28;20355;-78
2022/05/29 06:34:30;;;;;;;;;;;10.80;99.90;;;;;;5071912;28;19971;-79
2022/05/29 06:36:56;;;;;;;;;;;10.80;99.90;;;;;;5071548;28;19924;-79
2022/05/29 06:39:22;;;;;;;;;;;10.70;99.90;;;;;;5071638;28;19978;-79
2022/05/29 06:41:48;;;;;;;;;;;10.70;99.90;;;;;;5053258;28;19928;-79
2022/05/29 06:44:13;;;;;;;;;;;10.70;99.90;;;;;;5065618;28;19950;-79
2022/05/29 06:46:39;;;;;;;;;;;10.80;99.90;;;;;;5050649;28;19925;-79
2022/05/29 06:49:04;;;;;;;;;;;10.80;99.90;;;;;;5071335;28;19925;-79
2022/05/29 06:51:30;;;;;;;;;;;10.90;99.90;;;;;;5071253;28;20361;-78
2022/05/29 06:53:56;;;;;;;;;;;10.90;99.90;;;;;;5070895;28;19925;-79
2022/05/29 06:56:22;;;;;;;;;;;10.90;99.90;;;;;;5087088;28;19970;-79
2022/05/29 06:58:48;;;;;;;;;;;10.90;99.90;;;;;;5071230;28;19935;-78
2022/05/29 07:06:59;;;;;;;;;;;10.90;99.90;;;;;;5074976;28;19924;-79
2022/05/29 07:09:25;;;;;;;;;;;10.90;99.90;;;;;;5071092;28;20011;-79
2022/05/29 07:11:53;;;;;;;;;;;10.90;99.90;;;;;;5086371;28;20343;-79
2022/05/29 07:14:19;;;;;;;;;;;10.80;99.90;;;;;;5086267;28;20023;-79
2022/05/29 07:16:45;;;;;;;;;;;10.90;99.90;;;;;;5070738;28;20346;-79
2022/05/29 07:19:11;;;;;;;;;;;10.90;99.90;;;;;;5063255;28;19932;-79
2022/05/29 07:21:38;;;;;;;;;;;10.90;99.90;;;;;;5070803;28;20007;-79
2022/05/29 07:24:04;;;;;;;;;;;10.80;99.90;;;;;;5086248;28;20012;-79
2022/05/29 07:26:30;;;;;;;;;;;10.80;99.90;;;;;;5070423;28;20372;-79
2022/05/29 07:28:55;;;;;;;;;;;10.80;99.90;;;;;;5086695;28;19935;-79
2022/05/29 07:31:22;;;;;;;;;;;10.80;99.90;;;;;;5089358;28;19931;-79
2022/05/29 07:33:47;;;;;;;;;;;10.80;99.90;;;;;;5052369;28;20734;-79
2022/05/29 07:36:13;;;;;;;;;;;10.80;99.90;;;;;;5070881;28;20009;-79
2022/05/29 07:38:39;;;;;;;;;;;10.80;99.90;;;;;;5070469;28;20019;-79
2022/05/29 07:43:18;;;;;;;;;;;10.80;99.90;;;;;;5070042;28;19964;-79
2022/05/29 07:43:53;;;;;;;;;;;10.90;99.90;;;;;;5069552;28;19931;-79
2022/05/29 07:46:19;;;;;;;;;;;11.00;99.90;;;;;;5053393;28;20405;-79
2022/05/29 07:48:45;;;;;;;;;;;11.20;99.90;;;;;;5051631;28;19975;-79
2022/05/29 07:51:10;;;;;;;;;;;11.30;99.90;;;;;;5049751;28;20062;-79
2022/05/29 07:53:37;;;;;;;;;;;11.40;99.90;;;;;;5068400;28;20302;-79
2022/05/29 07:56:02;;;;;;;;;;;11.50;99.90;;;;;;5069085;28;19999;-80
2022/05/29 07:58:28;;;;;;;;;;;11.60;99.90;;;;;;5068982;28;20370;-79
2022/05/29 08:00:53;;;;;;;;;;;11.70;99.90;;;;;;5068902;28;19971;-79
2022/05/29 08:03:21;;;;;;;;;;;11.70;99.90;;;;;;5035533;28;19925;-79
2022/05/29 08:05:46;;;;;;;;;;;11.60;99.90;;;;;;5068686;28;19932;-79
2022/05/29 08:08:13;;;;;;;;;;;11.50;99.90;;;;;;5049805;28;19932;-79
2022/05/29 08:10:39;;;;;;;;;;;11.50;99.90;;;;;;5068415;28;20043;-79
2022/05/29 08:13:05;;;;;;;;;;;11.40;99.90;;;;;;5064332;28;19975;-79
2022/05/29 08:15:30;;;;;;;;;;;11.40;99.90;;;;;;5064220;28;19995;-78
2022/05/29 08:17:56;;;;;;;;;;;11.40;99.90;;;;;;5068280;28;19924;-79
2022/05/29 08:20:21;;;;;;;;;;;11.40;99.90;;;;;;5068983;28;19984;-79
2022/05/29 08:22:47;;;;;;;;;;;11.40;99.90;;;;;;5068687;28;19934;-79
2022/05/29 08:30:43;;;;;;;;;;;11.50;99.90;;;;;;5074086;28;19925;-78
2022/05/29 08:33:14;;;;;;;;;;;11.50;99.90;;;;;;5049680;28;19935;-78
2022/05/29 08:35:41;;;;;;;;;;;11.60;99.90;;;;;;5065580;28;20023;-79
2022/05/29 08:38:07;;;;;;;;;;;11.60;99.90;;;;;;5072233;28;19931;-79
2022/05/29 08:40:38;;;;;;;;;;;11.70;99.90;;;;;;5072271;28;20334;-79
2022/05/29 08:43:04;;;;;;;;;;;11.70;99.90;;;;;;5084963;28;20374;-79
2022/05/29 08:45:34;;;;;;;;;;;11.70;99.90;;;;;;5069508;28;19925;-79
2022/05/29 08:48:00;;;;;;;;;;;11.70;99.90;;;;;;5052374;28;20348;-79
2022/05/29 08:50:39;;;;;;;;;;;11.60;99.90;;;;;;5075686;28;20363;-79
2022/05/29 08:53:06;;;;;;;;;;;11.60;99.90;;;;;;5056553;28;20011;-79
2022/05/29 08:55:41;;;;;;;;;;;11.70;99.90;;;;;;5069384;28;19932;-79
2022/05/29 08:58:16;;;;;;;;;;;11.80;99.90;;;;;;5077669;28;19925;-79
2022/05/29 09:01:01;;;;;;;;;;;11.90;99.90;;;;;;5078048;28;19929;-78
2022/05/29 09:03:32;;;;;;;;;;;11.90;99.90;;;;;;5061226;28;19932;-78
2022/05/29 09:06:24;;;;;;;;;;;12.00;99.90;;;;;;5075597;28;19977;-79
2022/05/29 09:08:57;;;;;;;;;;;11.90;99.90;;;;;;5053060;28;19935;-79
2022/05/29 09:11:35;;;;;;;;;;;11.90;99.90;;;;;;5087362;28;19928;-80
2022/05/29 09:14:21;;;;;;;;;;;11.90;99.90;;;;;;5064339;28;19924;-79
2022/05/29 09:16:49;;;;;;;;;;;11.90;99.90;;;;;;5055092;28;19925;-79
2022/05/29 09:19:31;;;;;;;;;;;12.00;99.90;;;;;;5072988;28;19924;-79
2022/05/29 09:21:59;;;;;;;;;;;12.10;99.90;;;;;;5091854;28;19928;-78
2022/05/29 09:24:43;;;;;;;;;;;12.30;99.90;;;;;;5058990;28;19983;-80
2022/05/29 09:27:10;;;;;;;;;;;12.40;99.90;;;;;;5060124;28;20309;-78
2022/05/29 09:29:36;;;;;;;;;;;12.50;99.90;;;;;;5055323;28;19925;-79
2022/05/29 09:32:04;;;;;;;;;;;12.50;99.90;;;;;;5045789;28;19925;-79
2022/05/29 09:34:30;;;;;;;;;;;12.50;99.90;;;;;;5050373;28;19924;-80
2022/05/29 09:36:55;;;;;;;;;;;12.60;99.90;;;;;;5054934;28;19928;-79
2022/05/29 09:39:28;;;;;;;;;;;12.60;99.90;;;;;;5074702;28;19932;-80
2022/05/29 09:42:02;;;;;;;;;;;12.70;99.90;;;;;;5074761;28;19925;-79
2022/05/29 09:44:28;;;;;;;;;;;12.70;99.90;;;;;;5058808;28;19932;-81
2022/05/29 09:49:40;;;;;;;;;;;12.70;99.90;;;;;;5051222;28;20322;-81
2022/05/29 09:49:49;;;;;;;;;;;12.70;99.90;;;;;;5102028;28;19930;-80
2022/05/29 09:52:47;;;;;;;;;;;12.70;99.90;;;;;;5077333;28;19956;-80
2022/05/29 09:55:22;;;;;;;;;;;12.70;99.90;;;;;;5025829;28;19934;-80
2022/05/29 09:57:56;;;;;;;;;;;12.70;99.90;;;;;;5075681;28;20459;-80
2022/05/29 10:00:27;;;;;;;;;;;12.70;99.90;;;;;;5069087;28;19931;-80
2022/05/29 10:02:53;;;;;;;;;;;12.60;99.90;;;;;;5063856;28;19928;-80
2022/05/29 10:05:24;;;;;;;;;;;12.60;99.90;;;;;;5037102;28;20007;-80
2022/05/29 10:07:51;;;;;;;;;;;12.60;99.90;;;;;;5053022;28;19972;-81
2022/05/29 10:10:22;;;;;;;;;;;12.60;99.90;;;;;;5075949;28;20360;-81
2022/05/29 10:12:49;;;;;;;;;;;12.70;99.90;;;;;;5052254;28;19929;-79
2022/05/29 10:15:33;;;;;;;;;;;12.80;99.90;;;;;;5042156;28;19931;-80
2022/05/29 10:18:00;;;;;;;;;;;12.90;99.90;;;;;;5057390;28;19982;-79
2022/05/29 10:20:27;;;;;;;;;;;13.00;99.90;;;;;;5085937;28;19959;-80
2022/05/29 10:22:55;;;;;;;;;;;13.10;99.90;;;;;;5070867;28;19924;-80
2022/05/29 10:25:22;;;;;;;;;;;13.10;99.90;;;;;;5052827;28;19931;-80
2022/05/29 10:27:49;;;;;;;;;;;13.00;99.90;;;;;;5053192;28;19978;-79
2022/05/29 10:30:30;;;;;;;;;;;13.00;99.90;;;;;;5086368;28;19928;-80
2022/05/29 10:33:07;;;;;;;;;;;12.90;99.90;;;;;;5066900;28;19931;-80
2022/05/29 10:35:34;;;;;;;;;;;12.90;99.90;;;;;;5075722;28;19930;-80
2022/05/29 10:38:14;;;;;;;;;;;12.90;99.90;;;;;;5070648;28;19930;-80
2022/05/29 10:40:40;;;;;;;;;;;12.90;99.90;;;;;;5042947;28;20433;-80
2022/05/29 10:43:06;;;;;;;;;;;12.90;99.90;;;;;;5064259;28;19936;-79
2022/05/29 10:45:41;;;;;;;;;;;12.90;99.90;;;;;;5052395;28;19970;-80
2022/05/29 10:48:21;;;;;;;;;;;12.90;99.90;;;;;;5070273;28;19960;-80
2022/05/29 10:51:01;;;;;;;;;;;12.90;99.90;;;;;;5045217;28;20048;-80
2022/05/29 10:53:45;;;;;;;;;;;13.00;99.90;;;;;;4989010;28;1753106;-80
2022/05/29 10:56:16;;;;;;;;;;;13.00;99.90;;;;;;5071044;28;19924;-80
2022/05/29 10:58:51;;;;;;;;;;;13.10;99.90;;;;;;5053066;28;20019;-79
2022/05/29 11:04:26;;;;;;;;;;;13.10;99.90;;;;;;5066613;28;20279;-80
2022/05/29 11:06:51;;;;;;;;;;;13.10;99.90;;;;;;5046052;28;20415;-80
2022/05/29 11:09:23;;;;;;;;;;;13.10;99.90;;;;;;5053041;28;19986;-80
2022/05/29 11:11:55;;;;;;;;;;;13.10;99.90;;;;;;5052866;28;19935;-80
2022/05/29 11:14:39;;;;;;;;;;;13.20;99.90;;;;;;5052705;28;19939;-80
2022/05/29 11:17:14;;;;;;;;;;;13.30;99.90;;;;;;5052248;28;20474;-80
2022/05/29 11:19:51;;;;;;;;;;;13.50;99.90;;;;;;5038926;28;19931;-80
2022/05/29 11:22:22;;;;;;;;;;;13.70;99.90;;;;;;5056914;28;19928;-80
2022/05/29 11:25:06;;;;;;;;;;;14.00;99.90;;;;;;5070508;28;19959;-80
2022/05/29 11:27:43;;;;;;;;;;;14.10;99.90;;;;;;5052682;28;19928;-80
2022/05/29 11:30:08;;;;;;;;;;;14.40;99.90;;;;;;5086580;28;19986;-80
2022/05/29 11:32:33;;;;;;;;;;;14.50;99.90;;;;;;5070877;28;20394;-80
2022/05/29 11:35:05;;;;;;;;;;;14.50;99.90;;;;;;5053044;28;19931;-81
2022/05/29 11:37:38;;;;;;;;;;;14.60;99.90;;;;;;5070496;28;19924;-80
2022/05/29 11:40:11;;;;;;;;;;;14.60;99.90;;;;;;5064646;28;19925;-80
2022/05/29 11:42:45;;;;;;;;;;;14.70;99.90;;;;;;5063180;28;19932;-80
2022/05/29 11:45:22;;;;;;;;;;;14.70;99.90;;;;;;5052350;28;19929;-81
2022/05/29 11:53:28;;;;;;;;;;;14.40;99.90;;;;;;5050288;28;19925;-80
2022/05/29 11:55:55;;;;;;;;;;;14.40;99.90;;;;;;5074939;28;20299;-80
2022/05/29 11:58:44;;;;;;;;;;;14.30;99.90;;;;;;5085751;28;19924;-80
2022/05/29 12:01:15;;;;;;;;;;;14.30;99.90;;;;;;5070154;28;19983;-80
2022/05/29 12:03:59;;;;;;;;;;;14.20;99.90;;;;;;5070302;28;20007;-80
2022/05/29 12:06:30;;;;;;;;;;;14.20;99.90;;;;;;5069986;28;20011;-80
2022/05/29 12:09:19;;;;;;;;;;;14.10;99.90;;;;;;5070206;28;19928;-80
2022/05/29 12:11:47;;;;;;;;;;;14.10;99.90;;;;;;5033060;28;20018;-81
2022/05/29 12:14:19;;;;;;;;;;;14.10;99.90;;;;;;5085486;28;19925;-80
2022/05/29 12:16:47;;;;;;;;;;;14.20;99.90;;;;;;5085111;28;19931;-80
2022/05/29 12:19:35;;;;;;;;;;;14.40;99.90;;;;;;5052219;28;19974;-80
2022/05/29 12:22:06;;;;;;;;;;;14.60;99.90;;;;;;5064005;28;19928;-80
2022/05/29 12:24:34;;;;;;;;;;;14.70;99.90;;;;;;5056490;28;19982;-80
2022/05/29 12:27:05;;;;;;;;;;;14.80;99.90;;;;;;5051640;28;19924;-81
2022/05/29 12:29:34;;;;;;;;;;;14.90;99.90;;;;;;5069913;28;19924;-80
2022/05/29 12:32:01;;;;;;;;;;;15.00;99.90;;;;;;5051818;28;19924;-80
2022/05/29 12:34:36;;;;;;;;;;;15.00;99.90;;;;;;5069438;28;19924;-80
2022/05/29 12:37:20;;;;;;;;;;;15.00;99.90;;;;;;5085546;28;19946;-80
2022/05/29 12:39:46;;;;;;;;;;;15.00;99.90;;;;;;5037315;28;19924;-80
2022/05/29 12:42:19;;;;;;;;;;;14.80;99.90;;;;;;5069491;28;19939;-80
2022/05/29 12:44:51;;;;;;;;;;;14.70;99.90;;;;;;5067339;28;20405;-80
2022/05/29 12:47:19;;;;;;;;;;;14.40;99.90;;;;;;5055760;28;20393;-81
2022/05/29 12:49:57;;;;;;;;;;;14.10;99.90;;;;;;5069638;28;20066;-81
2022/05/29 12:52:26;;;;;;;;;;;13.90;99.90;;;;;;5051176;28;19959;-81
2022/05/29 12:55:12;;;;;;;;;;;13.70;99.90;;;;;;5075685;28;19935;-79
2022/05/29 12:57:50;;;;;;;;;;;13.70;99.90;;;;;;5060113;28;19924;-80
2022/05/29 13:00:15;;;;;;;;;;;13.60;99.90;;;;;;5054287;28;21769;-80
2022/05/29 13:02:47;;;;;;;;;;;13.50;99.90;;;;;;5051475;28;19929;-77
2022/05/29 13:05:18;;;;;;;;;;;13.60;99.90;;;;;;5055789;28;19924;-78
2022/05/29 13:08:16;;;;;;;;;;;13.70;99.90;;;;;;5051737;28;19981;-79
2022/05/29 13:10:43;;;;;;;;;;;13.80;99.90;;;;;;5026821;28;19936;-77
2022/05/29 13:13:13;;;;;;;;;;;14.00;99.90;;;;;;5034664;28;19978;-78
2022/05/29 13:15:40;;;;;;;;;;;14.00;99.90;;;;;;5048218;28;19928;-78
2022/05/29 13:18:09;;;;;;;;;;;14.00;99.90;;;;;;5069401;28;19924;-79
2022/05/29 13:20:53;;;;;;;;;;;14.10;99.90;;;;;;5084784;28;19925;-79
2022/05/29 13:23:30;;;;;;;;;;;14.20;99.90;;;;;;5058201;28;20333;-80
2022/05/29 13:25:56;;;;;;;;;;;14.30;99.90;;;;;;5086616;28;19931;-79
2022/05/29 13:28:27;;;;;;;;;;;14.50;99.90;;;;;;5084134;28;19928;-79
2022/05/29 13:31:12;;;;;;;;;;;14.60;99.90;;;;;;5050276;28;20340;-80
2022/05/29 13:33:45;;;;;;;;;;;14.80;99.90;;;;;;5077380;28;19932;-79
2022/05/29 13:36:31;;;;;;;;;;;15.00;99.90;;;;;;5069038;28;19968;-79
2022/05/29 13:38:56;;;;;;;;;;;15.10;99.90;;;;;;5067720;28;19977;-79
2022/05/29 13:41:26;;;;;;;;;;;15.00;99.60;;;;;;5069380;28;19929;-79
2022/05/29 13:43:52;;;;;;;;;;;15.00;99.70;;;;;;5069180;28;19924;-80
2022/05/29 13:46:20;;;;;;;;;;;15.00;99.60;;;;;;5061041;28;19933;-80
2022/05/29 13:48:56;;;;;;;;;;;14.80;99.80;;;;;;5067090;28;20081;-80
2022/05/29 13:51:26;;;;;;;;;;;14.80;99.40;;;;;;5072163;28;19982;-80
2022/05/29 13:53:57;;;;;;;;;;;14.70;98.20;;;;;;5041000;28;20026;-80
2022/05/29 13:56:43;;;;;;;;;;;14.80;99.20;;;;;;5056011;28;19934;-80
2022/05/29 14:04:52;;;;;;;;;;;14.80;98.80;;;;;;5053939;28;19980;-80
2022/05/29 14:07:20;;;;;;;;;;;14.70;99.10;;;;;;5095713;28;19925;-80
2022/05/29 14:10:04;;;;;;;;;;;14.70;99.70;;;;;;5072394;28;19932;-80
2022/05/29 14:12:36;;;;;;;;;;;14.70;99.20;;;;;;5076941;28;20002;-79
2022/05/29 14:15:20;;;;;;;;;;;14.60;99.80;;;;;;5079908;28;19960;-81
2022/05/29 14:17:46;;;;;;;;;;;14.40;99.90;;;;;;5054445;28;19930;-81
2022/05/29 14:20:27;;;;;;;;;;;14.10;99.90;;;;;;5071725;28;20015;-80
2022/05/29 14:23:03;;;;;;;;;;;13.90;99.90;;;;;;5067951;28;19987;-81
2022/05/29 14:25:29;;;;;;;;;;;13.70;99.90;;;;;;5069338;28;20007;-81
2022/05/29 14:28:11;;;;;;;;;;;13.50;99.90;;;;;;5054585;28;20011;-80
2022/05/29 14:30:51;;;;;;;;;;;13.40;99.90;;;;;;5054109;28;19924;-81
2022/05/29 14:33:17;;;;;;;;;;;13.30;99.90;;;;;;5067544;28;19932;-81
2022/05/29 14:36:04;;;;;;;;;;;13.30;99.90;;;;;;5053400;28;19934;-81
2022/05/29 14:38:32;;;;;;;;;;;13.20;99.90;;;;;;5079765;28;19971;-81
2022/05/29 14:41:00;;;;;;;;;;;13.40;99.90;;;;;;5053139;28;19928;-80
2022/05/29 14:43:27;;;;;;;;;;;13.40;99.90;;;;;;5063029;28;19929;-80
2022/05/29 14:45:58;;;;;;;;;;;13.50;99.90;;;;;;5053617;28;19925;-80
2022/05/29 14:48:27;;;;;;;;;;;13.50;99.90;;;;;;5046872;28;19932;-80
2022/05/29 14:50:55;;;;;;;;;;;13.60;99.90;;;;;;5080514;28;20523;-81
2022/05/29 14:53:40;;;;;;;;;;;13.60;99.90;;;;;;5057455;28;19924;-81
2022/05/29 14:56:07;;;;;;;;;;;13.70;99.90;;;;;;5052454;28;19935;-81
2022/05/29 14:58:32;;;;;;;;;;;13.80;99.90;;;;;;5053597;28;20019;-80
2022/05/29 15:01:03;;;;;;;;;;;13.90;99.90;;;;;;5041564;28;19929;-80
2022/05/29 15:03:31;;;;;;;;;;;13.90;99.90;;;;;;5080998;28;20467;-80
2022/05/29 15:05:57;;;;;;;;;;;13.90;99.90;;;;;;5067473;28;19932;-79
2022/05/29 15:11:13;;;;;;;;;;;13.60;99.90;;;;;;5084364;28;19975;-78